Terminal Aerodrome Forecast
Issued by NWS

Home | Current Version | Previous Version | Text Only | Print | Product List | Glossary On
Versions: 1 2 3 4 5 6 7 8 9 10 11 12 13 14 15 16 17 18 19 20 21 22
000
FTUS46 KLOX 051100
TAFLGB
TAF
KLGB 051123Z 0512/0612 14004KT P6SM SCT017 OVC030
     FM051400 17005KT P6SM SCT020 BKN035
     FM051800 19008KT P6SM BKN035
      TEMPO 0520/0524 SCT035
     FM060100 VRB04KT P6SM BKN025
     FM060900 16004KT P6SM BKN015 BKN030=

USA.gov is the U.S. government's official web portal to all federal, state and local government web resources and services.